Flight Track Log - Related Links

Times and Time Zones

All times are in EDT time to prevent confusion due to time zone crossing. See the UAL653 flight status page for this flight to view local times or setup timezone preferences in your user account.

Time Position Orientation Groundspeed Altitude Reporting Facility
EDT Latitude Longitude Course Direction KTS MPH feet Rate Location/Type
Sat 02:19:47 PM 37.6333 -122.3667 136° Southeast 150 173 700  Level Northern Cal TRACON
Sat 02:20:47 PM 37.6833 -122.3667 360° North 221 254 2,700 2,350 Climbing Northern Cal TRACON
Sat 02:21:47 PM 37.7333 -122.4167 322° Northwest 271 312 5,400 2,705 Climbing Northern Cal TRACON
Sat 02:22:00 PM 37.4839 -122.4661 218° Southwest  Level FlightAware Approximate
Sat 02:23:00 PM 37.4330 -122.3658 113° Southeast  Level FlightAware Approximate
Sat 02:24:00 PM 37.3817 -122.2647 136° Southeast  Level FlightAware Approximate
Sat 02:24:00 PM 37.6003 -122.5325 215° Southwest 286 329 11,400  Level Oakland Center
Sat 02:25:00 PM 37.3120 -122.1810 136° Southeast  Level FlightAware Approximate
Sat 02:25:01 PM 37.5225 -122.5225 174° South 286 329 14,200  Level Oakland Center
Sat 02:26:03 PM 37.4286 -122.4667 155° Southeast 343 395 15,900 2,098 Climbing Oakland Center
Sat 02:27:04 PM 37.3617 -122.3747 132° Southeast 360 414 18,500 2,293 Climbing Oakland Center
Sat 02:28:06 PM 37.2911 -122.2758 132° Southeast 378 435 20,600 2,098 Climbing Oakland Center
Sat 02:29:07 PM 37.2203 -122.1728 131° Southeast 390 449 22,800 2,000 Climbing Oakland Center
Sat 02:30:09 PM 37.1467 -122.0675 131° Southeast 400 460 24,700 1,790 Climbing Oakland Center
Sat 02:31:11 PM 37.0703 -121.9583 131° Southeast 413 475 26,500 1,805 Climbing Oakland Center
Sat 02:32:12 PM 36.9939 -121.8489 131° Southeast 419 482 28,400 1,805 Climbing Oakland Center
Sat 02:33:14 PM 36.8964 -121.7133 132° Southeast 434 499 30,200 1,645 Climbing Oakland Center
Sat 02:34:16 PM 36.8142 -121.5964 131° Southeast 447 514 31,800 1,317 Climbing Oakland Center
Sat 02:35:17 PM 36.7428 -121.4917 130° Southeast 453 521 32,900 585 Climbing Oakland Center
Sat 02:36:19 PM 36.6428 -121.3503 131° Southeast 456 525 33,000  Climbing Oakland Center
Sat 02:37:20 PM 36.5642 -121.2389 131° Southeast 432 497 32,900  Descending Oakland Center
Sat 02:38:22 PM 36.4850 -121.1292 132° Southeast 425 489 33,000 49 Climbing Oakland Center
Sat 02:39:23 PM 36.4064 -121.0197 132° Southeast 425 489 33,000  Level Oakland Center
Sat 02:40:25 PM 36.3269 -120.9103 132° Southeast 428 493 33,000  Level Oakland Center
Sat 02:41:26 PM 36.2481 -120.7994 131° Southeast 426 490 33,000  Level Oakland Center
Sat 02:42:28 PM 36.1692 -120.6886 131° Southeast 428 493 33,000  Level Oakland Center
Sat 02:43:29 PM 36.0889 -120.5794 132° Southeast 428 493 33,000  Level Oakland Center
Sat 02:44:31 PM 35.9928 -120.4483 132° Southeast 426 490 33,000  Level Oakland Center
Sat 02:45:32 PM 35.9136 -120.3386 132° Southeast 428 493 33,000 -49 Level Oakland Center
Sat 02:46:34 PM 35.8336 -120.2297 132° Southeast 425 489 32,900  Descending Oakland Center
Sat 02:47:35 PM 35.7536 -120.1214 132° Southeast 424 488 33,000 49 Climbing Oakland Center
Sat 02:48:37 PM 35.6728 -120.0119 132° Southeast 427 491 33,000  Level Oakland Center
Sat 02:49:38 PM 35.5806 -119.9175 140° Southeast 425 489 33,000  Level Oakland Center
Sat 02:50:40 PM 35.4819 -119.8328 145° Southeast 428 493 33,000 -439 Level Oakland Center
Sat 02:51:41 PM 35.3833 -119.7486 145° Southeast 428 493 32,100 -1,122 Descending Oakland Center
Sat 02:52:43 PM 35.2853 -119.6647 145° Southeast 429 494 30,700 -1,268 Descending Oakland Center
Sat 02:53:44 PM 35.1850 -119.5786 145° Southeast 434 499 29,500 -1,024 Descending Oakland Center
Sat 02:54:46 PM 35.0853 -119.4958 146° Southeast 433 498 28,600 -976 Descending Oakland Center
Sat 02:55:47 PM 34.9683 -119.3978 145° Southeast 426 490 27,500 -1,024 Descending Oakland Center
Sat 02:56:49 PM 34.8736 -119.3153 144° Southeast 420 483 26,500 -927 Descending Oakland Center
Sat 02:57:50 PM 34.7786 -119.2342 145° Southeast 417 480 25,600 -1,415 Descending Oakland Center
Sat 02:58:52 PM 34.6836 -119.1553 146° Southeast 415 478 23,600 -1,787 Descending Oakland Center
Sat 03:00:11 PM 34.5856 -119.0739 146° Southeast 409 471 21,400 -1,986 Descending Los Angeles Center
Sat 03:01:14 PM 34.4794 -118.9858 146° Southeast 383 441 18,900 -2,304 Descending Los Angeles Center
Sat 03:02:16 PM 34.3817 -118.9033 145° Southeast 345 397 16,600 -2,049 Descending Los Angeles Center
Sat 03:03:17 PM 34.2975 -118.8583 156° South 335 386 14,700 -1,951 Descending Los Angeles Center
Sat 03:04:19 PM 34.2056 -118.8258 164° South 343 395 12,600 -1,935 Descending Los Angeles Center
Sat 03:05:21 PM 34.1150 -118.7919 163° South 343 395 10,700 -1,258 Descending Los Angeles Center
Sat 03:06:23 PM 34.0594 -118.6911 124° Southeast 325 374 10,000 -435 Descending Los Angeles Center
Sat 03:07:25 PM 34.0378 -118.5875 104° East 321 369 9,800 -1,065 Descending Los Angeles Center
Sat 03:08:27 PM 34.0172 -118.4953 105° East 286 329 7,800 -1,935 Descending Los Angeles Center
Sat 03:09:29 PM 34.0092 -118.4000 96° East 274 315 5,800 -1,935 Descending Los Angeles Center
Sat 03:10:31 PM 34.0197 -118.3119 82° East 267 307 3,800 -1,500 Descending Los Angeles Center
Sat 03:11:33 PM 34.0064 -118.2369 102° East 261 300 2,700 -1,065 Descending Los Angeles Center

Login

Don't have an account? Register now (free) for customized features, flight alerts, and more!